Time;durP1;ratioP1;P1;durP2;ratioP2;P2;SDS_P1;SDS_P2;PMS_P1;PMS_P2;Temp;Humidity;BMP_temperature;BMP_pressure;BME280_temperature;BME280_humidity;BME280_pressure;Samples;Min_cycle;Max_cycle;Signal;HPM_P1;HPM_P2
2022/05/03 00:00:50;;;;;;;18.03;9.40;;;10.30;99.90;;;;;;4182836;28;20176;-91
2022/05/03 00:03:13;;;;;;;15.60;10.10;;;10.20;99.90;;;;;;4183020;28;20697;-92
2022/05/03 00:05:58;;;;;;;22.07;9.90;;;10.30;99.90;;;;;;4166269;28;20204;-92
2022/05/03 00:08:11;;;;;;;18.70;9.77;;;10.10;99.90;;;;;;4152301;28;20180;-92
2022/05/03 00:10:15;;;;;;;16.57;9.83;;;10.20;99.90;;;;;;4166449;28;20172;-93
2022/05/03 00:12:23;;;;;;;17.40;9.73;;;10.40;99.90;;;;;;4149923;28;20181;-92
2022/05/03 00:14:45;;;;;;;16.13;9.50;;;10.60;99.90;;;;;;4149651;28;20664;-93
2022/05/03 00:16:49;;;;;;;16.43;9.70;;;10.70;99.90;;;;;;4149674;28;20165;-92
2022/05/03 00:18:50;;;;;;;16.60;10.17;;;10.50;99.90;;;;;;4149739;28;20193;-92
2022/05/03 00:20:52;;;;;;;15.77;10.07;;;10.50;99.90;;;;;;4165730;28;20517;-93
2022/05/03 00:22:55;;;;;;;17.70;9.33;;;10.50;99.90;;;;;;4149764;28;20337;-91
2022/05/03 00:24:56;;;;;;;17.03;10.10;;;10.40;99.90;;;;;;4149710;28;20240;-92
2022/05/03 00:26:57;;;;;;;16.13;9.17;;;10.10;99.90;;;;;;4149677;28;20260;-93
2022/05/03 00:28:59;;;;;;;16.80;9.47;;;10.20;99.90;;;;;;4166221;28;20192;-92
2022/05/03 00:31:01;;;;;;;16.23;8.87;;;10.50;99.90;;;;;;4149383;28;20244;-92
2022/05/03 00:33:04;;;;;;;15.43;9.33;;;10.60;99.90;;;;;;4149836;28;20169;-93
2022/05/03 00:35:08;;;;;;;16.10;9.97;;;10.70;99.90;;;;;;4149693;28;20173;-92
2022/05/03 00:37:09;;;;;;;14.63;9.60;;;10.70;99.90;;;;;;4149223;28;20272;-93
2022/05/03 00:39:10;;;;;;;16.87;9.90;;;10.50;99.90;;;;;;4149441;28;20188;-95
2022/05/03 00:41:17;;;;;;;16.40;9.50;;;10.40;99.90;;;;;;4149837;28;20185;-92
2022/05/03 00:43:39;;;;;;;14.90;9.30;;;10.50;99.90;;;;;;4149425;28;20176;-92
2022/05/03 00:45:48;;;;;;;17.53;9.87;;;10.50;99.90;;;;;;4146549;28;20323;-93
2022/05/03 00:47:53;;;;;;;16.17;9.67;;;10.40;99.90;;;;;;4149489;28;20207;-92
2022/05/03 00:50:06;;;;;;;18.60;10.07;;;10.60;99.90;;;;;;4165879;28;20179;-93
2022/05/03 00:52:20;;;;;;;18.10;10.60;;;10.20;99.90;;;;;;4149689;28;20655;-92
2022/05/03 00:54:55;;;;;;;16.17;9.47;;;10.10;99.90;;;;;;4149567;28;20181;-93
2022/05/03 00:57:15;;;;;;;15.77;9.40;;;9.90;99.90;;;;;;4148574;28;20303;-92
2022/05/03 00:59:27;;;;;;;18.20;9.37;;;9.80;99.90;;;;;;4149327;28;20208;-93
2022/05/03 01:01:52;;;;;;;15.67;9.50;;;9.70;99.90;;;;;;4165333;28;20200;-92
2022/05/03 01:04:19;;;;;;;15.60;9.97;;;9.50;99.90;;;;;;4165294;28;20659;-92
2022/05/03 01:07:05;;;;;;;18.90;9.67;;;9.30;99.90;;;;;;4148993;28;20215;-92
2022/05/03 01:09:11;;;;;;;18.07;9.23;;;9.40;99.90;;;;;;4148969;28;20208;-92
2022/05/03 01:11:53;;;;;;;14.70;8.73;;;9.60;99.90;;;;;;4149281;28;20172;-92
2022/05/03 01:14:20;;;;;;;16.27;8.80;;;9.30;99.90;;;;;;4165289;28;20230;-91
2022/05/03 01:16:47;;;;;;;17.77;9.13;;;9.40;99.90;;;;;;4165489;28;20700;-92
2022/05/03 01:19:04;;;;;;;20.63;9.53;;;9.30;99.90;;;;;;4163645;28;20341;-92
2022/05/03 01:21:13;;;;;;;15.50;9.13;;;9.30;99.90;;;;;;4148966;28;20188;-92
2022/05/03 01:23:52;;;;;;;17.33;9.80;;;9.30;99.90;;;;;;4164754;28;20192;-92
2022/05/03 01:26:25;;;;;;;15.17;9.40;;;9.30;99.90;;;;;;4115347;28;20228;-92
2022/05/03 01:29:04;;;;;;;15.53;9.67;;;9.40;99.90;;;;;;4148452;28;20620;-94
2022/05/03 01:31:09;;;;;;;16.43;9.57;;;9.40;99.90;;;;;;4148731;28;20736;-92
2022/05/03 01:33:14;;;;;;;16.40;9.57;;;9.20;99.90;;;;;;4148727;28;20173;-92
2022/05/03 01:35:18;;;;;;;17.10;9.80;;;9.20;99.90;;;;;;4148728;28;20177;-92
2022/05/03 01:37:57;;;;;;;17.73;9.73;;;9.10;99.90;;;;;;4148777;28;20664;-93
2022/05/03 01:40:05;;;;;;;14.57;8.87;;;8.90;99.90;;;;;;4165218;28;20181;-92
2022/05/03 01:42:13;;;;;;;15.90;8.93;;;8.70;99.90;;;;;;4164943;28;20221;-92
2022/05/03 01:44:37;;;;;;;17.40;9.27;;;8.70;99.90;;;;;;4148493;28;20180;-93
2022/05/03 01:46:39;;;;;;;15.40;8.80;;;8.80;99.90;;;;;;4164353;28;20187;-93
2022/05/03 01:51:19;;;;;;;16.33;8.93;;;8.80;99.90;;;;;;4164763;28;20226;-93
2022/05/03 01:53:29;;;;;;;17.03;9.03;;;8.80;99.90;;;;;;4164600;28;20206;-92
2022/05/03 01:56:12;;;;;;;16.83;9.27;;;8.90;99.90;;;;;;4164970;28;20176;-92
2022/05/03 01:58:35;;;;;;;18.33;9.77;;;8.80;99.90;;;;;;4148589;28;20216;-92
2022/05/03 02:00:36;;;;;;;18.67;9.07;;;8.90;99.90;;;;;;4148026;28;20204;-92
2022/05/03 02:02:58;;;;;;;15.93;10.23;;;8.90;99.90;;;;;;4164200;28;20176;-92
2022/05/03 02:05:16;;;;;;;20.40;9.90;;;8.90;99.90;;;;;;4164382;28;20215;-92
2022/05/03 02:07:23;;;;;;;20.43;10.77;;;9.00;99.90;;;;;;4164639;28;20180;-92
2022/05/03 02:09:48;;;;;;;17.83;11.37;;;9.00;99.90;;;;;;4163492;28;20203;-92
2022/05/03 02:12:15;;;;;;;19.67;10.53;;;9.00;99.90;;;;;;4164318;28;20186;-91
2022/05/03 02:14:45;;;;;;;19.63;11.13;;;9.00;99.90;;;;;;4164323;28;20628;-92
2022/05/03 02:16:51;;;;;;;17.13;10.87;;;9.10;99.90;;;;;;4148317;28;20219;-92
2022/05/03 02:19:07;;;;;;;16.80;11.10;;;9.10;99.90;;;;;;4148223;28;20203;-93
2022/05/03 02:21:17;;;;;;;19.57;11.00;;;9.00;99.90;;;;;;4148466;28;20231;-91
2022/05/03 02:23:35;;;;;;;21.57;11.07;;;9.10;99.90;;;;;;4148273;28;20180;-91
2022/05/03 02:25:49;;;;;;;22.40;11.50;;;9.00;99.90;;;;;;4176051;22;20750;-88
2022/05/03 02:28:04;;;;;;;22.23;11.60;;;8.80;99.90;;;;;;4181268;28;20170;-88
2022/05/03 02:30:07;;;;;;;18.30;11.17;;;8.90;99.90;;;;;;4164745;28;20172;-89
2022/05/03 02:32:11;;;;;;;19.23;11.60;;;8.80;99.90;;;;;;4164678;28;20168;-88
2022/05/03 02:34:28;;;;;;;18.47;10.80;;;8.80;99.90;;;;;;4164676;28;20180;-88
2022/05/03 02:36:34;;;;;;;17.63;10.97;;;8.70;99.90;;;;;;4164575;28;20221;-87
2022/05/03 02:38:46;;;;;;;18.47;10.17;;;8.70;99.90;;;;;;4164401;28;20194;-87
2022/05/03 02:40:51;;;;;;;15.83;8.93;;;8.60;99.90;;;;;;4164361;28;20175;-88
2022/05/03 02:42:52;;;;;;;20.17;9.90;;;8.50;99.90;;;;;;4181033;28;20167;-88
2022/05/03 02:44:56;;;;;;;16.07;10.03;;;8.60;99.90;;;;;;4180906;28;20298;-88
2022/05/03 02:47:14;;;;;;;17.57;10.63;;;8.60;99.90;;;;;;4164460;28;20255;-88
2022/05/03 02:49:19;;;;;;;17.57;10.70;;;8.70;99.90;;;;;;4164656;28;20199;-88
2022/05/03 02:51:26;;;;;;;17.17;10.40;;;8.60;99.90;;;;;;4164769;28;20640;-87
2022/05/03 02:53:47;;;;;;;21.10;11.17;;;8.50;99.90;;;;;;4180809;28;20207;-88
2022/05/03 02:55:53;;;;;;;20.33;10.43;;;8.50;99.90;;;;;;4164449;28;20203;-88
2022/05/03 02:57:57;;;;;;;18.50;9.77;;;8.50;99.90;;;;;;4164413;28;20168;-88
2022/05/03 03:02:35;;;;;;;21.10;11.37;;;8.60;99.90;;;;;;4180371;28;20179;-88
2022/05/03 03:04:46;;;;;;;19.30;12.13;;;8.70;99.90;;;;;;4164373;28;20175;-89
2022/05/03 03:06:54;;;;;;;17.80;10.63;;;8.70;99.90;;;;;;4164572;28;20275;-88
2022/05/03 03:08:55;;;;;;;22.10;11.90;;;8.70;99.90;;;;;;4164662;28;20195;-88
2022/05/03 03:11:07;;;;;;;18.07;10.83;;;8.70;99.90;;;;;;4164438;28;20180;-88
2022/05/03 03:13:44;;;;;;;21.10;12.23;;;8.70;99.90;;;;;;4164411;28;20176;-87
2022/05/03 03:15:44;;;;;;;17.93;11.10;;;8.80;99.90;;;;;;4164526;28;20168;-88
2022/05/03 03:17:50;;;;;;;22.93;11.93;;;8.70;99.90;;;;;;4164282;28;20175;-88
2022/05/03 03:19:59;;;;;;;20.67;11.07;;;8.70;99.90;;;;;;4165161;28;20171;-88
2022/05/03 03:22:02;;;;;;;19.53;11.23;;;8.70;99.90;;;;;;4167629;28;20184;-88
2022/05/03 03:24:08;;;;;;;16.57;10.87;;;8.60;99.90;;;;;;4167390;28;20172;-89
2022/05/03 03:26:10;;;;;;;17.10;10.80;;;8.70;99.90;;;;;;4167244;28;20266;-88
2022/05/03 03:28:14;;;;;;;17.83;10.83;;;8.70;99.90;;;;;;4167467;28;20199;-88
2022/05/03 03:30:16;;;;;;;16.80;10.57;;;8.60;99.90;;;;;;4167440;28;20663;-88
2022/05/03 03:32:18;;;;;;;15.93;9.80;;;8.70;99.90;;;;;;4167493;28;20164;-88
2022/05/03 03:34:21;;;;;;;17.03;10.67;;;8.50;99.90;;;;;;4167403;28;20172;-88
2022/05/03 03:36:23;;;;;;;18.03;10.80;;;8.40;99.90;;;;;;4167211;28;20171;-88
2022/05/03 03:38:32;;;;;;;19.47;10.50;;;8.10;99.90;;;;;;4167217;28;20676;-88
2022/05/03 03:40:33;;;;;;;15.10;9.33;;;8.10;99.90;;;;;;4167285;28;20179;-88
2022/05/03 03:42:33;;;;;;;14.50;9.07;;;8.30;99.90;;;;;;4167120;28;20176;-88
2022/05/03 03:44:35;;;;;;;14.57;8.57;;;8.30;99.90;;;;;;4167004;28;20248;-88
2022/05/03 03:46:35;;;;;;;17.03;9.87;;;8.40;99.90;;;;;;4167068;28;20183;-88
2022/05/03 03:48:37;;;;;;;19.03;10.13;;;8.40;99.90;;;;;;4167016;28;20219;-88
2022/05/03 03:50:38;;;;;;;18.70;10.87;;;8.50;99.90;;;;;;4167159;28;20650;-88
2022/05/03 03:52:41;;;;;;;18.23;10.67;;;8.60;99.90;;;;;;4167201;28;20172;-88
2022/05/03 03:54:43;;;;;;;20.33;11.57;;;8.50;99.90;;;;;;4167099;28;20172;-89
2022/05/03 03:56:45;;;;;;;22.77;12.47;;;8.50;99.90;;;;;;4167084;28;20168;-89
2022/05/03 03:58:47;;;;;;;20.33;11.77;;;8.40;99.90;;;;;;4183515;28;20198;-89
2022/05/03 04:00:48;;;;;;;19.40;12.33;;;8.40;99.90;;;;;;4167060;28;20172;-89
2022/05/03 04:02:49;;;;;;;21.23;11.97;;;8.50;99.90;;;;;;4166934;28;20184;-88
2022/05/03 04:04:52;;;;;;;22.60;13.10;;;8.50;99.90;;;;;;4183464;28;20721;-88
2022/05/03 04:06:53;;;;;;;21.33;12.83;;;8.50;99.90;;;;;;4166913;28;20183;-88
2022/05/03 04:08:54;;;;;;;23.23;13.03;;;8.50;99.90;;;;;;4183014;28;20278;-88
2022/05/03 04:10:54;;;;;;;22.20;13.00;;;8.50;99.90;;;;;;4183117;28;20225;-88
2022/05/03 04:12:55;;;;;;;24.07;13.27;;;8.50;99.90;;;;;;4166869;28;20267;-88
2022/05/03 04:14:56;;;;;;;24.37;13.30;;;8.50;99.90;;;;;;4166989;28;20176;-88
2022/05/03 04:16:57;;;;;;;22.60;12.90;;;8.50;99.90;;;;;;4166687;28;20180;-88
2022/05/03 04:18:58;;;;;;;24.33;13.67;;;8.60;99.90;;;;;;4166826;28;20185;-88
2022/05/03 04:20:59;;;;;;;21.33;13.53;;;8.60;99.90;;;;;;4166565;28;20190;-88
2022/05/03 04:22:59;;;;;;;24.13;14.13;;;8.60;99.90;;;;;;4182957;28;20175;-88
2022/05/03 04:25:02;;;;;;;27.83;15.17;;;8.40;99.90;;;;;;4166166;28;20208;-88
2022/05/03 04:27:02;;;;;;;22.30;13.70;;;8.50;99.90;;;;;;4182944;28;20314;-87
2022/05/03 04:29:03;;;;;;;22.43;13.80;;;8.50;99.90;;;;;;4166440;28;20692;-88
2022/05/03 04:31:05;;;;;;;26.60;14.83;;;8.50;99.90;;;;;;4165800;28;20179;-88
2022/05/03 04:33:06;;;;;;;25.73;14.83;;;8.70;99.90;;;;;;4166066;28;20314;-88
2022/05/03 04:35:07;;;;;;;24.93;13.73;;;8.70;99.90;;;;;;4182651;28;20175;-88
2022/05/03 04:37:07;;;;;;;26.17;15.07;;;8.80;99.90;;;;;;4166263;28;20176;-87
2022/05/03 04:39:09;;;;;;;26.13;14.43;;;8.80;99.90;;;;;;4166400;28;20265;-88
2022/05/03 04:41:10;;;;;;;23.47;14.40;;;8.90;99.90;;;;;;4166643;28;20709;-88
2022/05/03 04:43:11;;;;;;;26.33;14.63;;;8.80;99.90;;;;;;4166303;28;20267;-88
2022/05/03 04:45:12;;;;;;;27.87;15.50;;;8.80;99.90;;;;;;4166379;28;20208;-88
2022/05/03 04:47:12;;;;;;;26.57;15.03;;;8.70;99.90;;;;;;4166063;28;20176;-88
2022/05/03 04:49:13;;;;;;;25.67;14.83;;;8.80;99.90;;;;;;4165586;28;20185;-88
2022/05/03 04:51:19;;;;;;;24.23;14.47;;;8.90;99.90;;;;;;4182453;28;20180;-88
2022/05/03 04:53:21;;;;;;;24.60;13.63;;;8.90;99.90;;;;;;4166254;28;20172;-89
2022/05/03 04:55:23;;;;;;;29.97;14.73;;;8.80;99.90;;;;;;4182694;28;20202;-88
2022/05/03 04:57:24;;;;;;;22.47;13.87;;;8.80;99.90;;;;;;4165996;28;20172;-88
2022/05/03 04:59:24;;;;;;;24.63;13.83;;;8.80;99.90;;;;;;4182396;28;20218;-88
2022/05/03 05:01:26;;;;;;;24.20;14.30;;;8.90;99.90;;;;;;4166028;28;20177;-89
2022/05/03 05:03:27;;;;;;;24.07;14.80;;;8.80;99.90;;;;;;4166057;28;20192;-88
2022/05/03 05:05:28;;;;;;;25.53;15.17;;;8.80;99.90;;;;;;4165981;28;20208;-89
2022/05/03 05:07:28;;;;;;;25.80;14.57;;;9.00;99.90;;;;;;4166143;28;20212;-88
2022/05/03 05:09:29;;;;;;;29.00;15.37;;;9.00;99.90;;;;;;4166034;28;20772;-89
2022/05/03 05:11:30;;;;;;;26.03;14.90;;;9.10;99.90;;;;;;4166000;28;20245;-89
2022/05/03 05:13:32;;;;;;;27.80;15.67;;;9.10;99.90;;;;;;4182520;28;20229;-88
2022/05/03 05:15:33;;;;;;;30.20;16.80;;;9.10;99.90;;;;;;4165842;28;20176;-88
2022/05/03 05:17:34;;;;;;;31.13;16.50;;;9.20;99.90;;;;;;4181869;28;20194;-88
2022/05/03 05:19:34;;;;;;;28.83;15.70;;;9.20;99.90;;;;;;4165618;28;20197;-88
2022/05/03 05:21:35;;;;;;;27.27;16.13;;;9.30;99.90;;;;;;4182264;28;20180;-88
2022/05/03 05:23:37;;;;;;;30.13;15.17;;;9.30;99.90;;;;;;4165576;28;20172;-88
2022/05/03 05:25:37;;;;;;;32.37;15.83;;;9.40;99.90;;;;;;4181730;28;20247;-88
2022/05/03 05:27:39;;;;;;;33.13;16.63;;;9.20;99.90;;;;;;4182109;28;20663;-89
2022/05/03 05:29:39;;;;;;;32.17;16.77;;;9.30;99.90;;;;;;4165593;28;20231;-89
2022/05/03 05:31:40;;;;;;;28.83;15.70;;;9.40;99.90;;;;;;4165694;28;20172;-89
2022/05/03 05:33:41;;;;;;;29.67;16.20;;;9.60;99.90;;;;;;4165557;28;20226;-89
2022/05/03 05:35:43;;;;;;;27.23;16.07;;;9.60;99.90;;;;;;4165252;28;20684;-89
2022/05/03 05:37:44;;;;;;;31.53;15.57;;;9.70;99.90;;;;;;4165222;28;20206;-89
2022/05/03 05:39:44;;;;;;;26.73;15.73;;;9.80;99.90;;;;;;4181891;28;20274;-89
2022/05/03 05:41:56;;;;;;;26.27;16.00;;;9.80;99.90;;;;;;4165381;28;20188;-89
2022/05/03 05:43:57;;;;;;;26.20;14.73;;;9.90;99.90;;;;;;4165065;28;20649;-89
2022/05/03 05:45:58;;;;;;;26.83;15.70;;;10.00;99.90;;;;;;4165350;28;20262;-89
2022/05/03 05:47:58;;;;;;;24.60;15.33;;;10.10;99.90;;;;;;4165215;28;20206;-89
2022/05/03 05:49:59;;;;;;;25.30;15.47;;;10.40;99.90;;;;;;4165636;28;20314;-89
2022/05/03 05:54:19;;;;;;;27.73;15.07;;;11.00;99.90;;;;;;4181594;28;20182;-88
2022/05/03 05:58:21;;;;;;;29.90;15.03;;;11.00;99.90;;;;;;4132404;28;20194;-88
2022/05/03 06:00:22;;;;;;;33.63;15.80;;;11.30;99.90;;;;;;4165023;28;20316;-89
2022/05/03 06:02:23;;;;;;;32.17;16.30;;;11.20;99.90;;;;;;4165050;28;20221;-88
2022/05/03 06:04:24;;;;;;;31.80;15.50;;;11.00;99.90;;;;;;4165167;28;20188;-88
2022/05/03 06:06:24;;;;;;;24.90;14.53;;;10.80;99.90;;;;;;4165103;28;20266;-88
2022/05/03 06:08:25;;;;;;;43.20;18.13;;;10.60;99.90;;;;;;4164990;28;20188;-90
2022/05/03 06:10:26;;;;;;;29.80;14.57;;;10.70;99.90;;;;;;4181265;28;20198;-89
2022/05/03 06:12:27;;;;;;;28.60;15.20;;;10.60;99.90;;;;;;4165123;28;20640;-88
2022/05/03 06:14:27;;;;;;;27.83;15.30;;;10.70;99.90;;;;;;4181519;28;20217;-88
2022/05/03 06:16:28;;;;;;;33.27;14.97;;;10.80;99.90;;;;;;4164917;28;20215;-90
2022/05/03 06:18:29;;;;;;;26.17;15.10;;;10.90;99.90;;;;;;4165053;28;20203;-89
2022/05/03 06:20:30;;;;;;;26.13;14.60;;;10.70;99.90;;;;;;4181571;28;20183;-89
2022/05/03 06:22:30;;;;;;;25.13;14.27;;;10.60;99.90;;;;;;4181527;28;20293;-88
2022/05/03 06:24:31;;;;;;;25.37;14.03;;;10.70;99.90;;;;;;4164892;28;20218;-90
2022/05/03 06:26:32;;;;;;;25.10;13.87;;;10.90;99.90;;;;;;4164533;28;20213;-89
2022/05/03 06:28:33;;;;;;;27.33;15.03;;;11.20;99.90;;;;;;4164402;28;20196;-90
2022/05/03 06:30:34;;;;;;;23.43;14.23;;;11.40;99.90;;;;;;4181174;28;20580;-93
2022/05/03 06:32:40;;;;;;;27.70;13.10;;;11.40;99.90;;;;;;4164543;28;20655;-90
2022/05/03 06:34:41;;;;;;;24.03;13.30;;;11.20;99.90;;;;;;4164890;28;20176;-90
2022/05/03 06:36:42;;;;;;;21.67;12.53;;;11.40;99.90;;;;;;4181275;28;20213;-90
2022/05/03 06:38:45;;;;;;;24.60;13.50;;;11.40;99.90;;;;;;4164526;28;20192;-89
2022/05/03 06:40:46;;;;;;;22.83;12.07;;;11.40;99.90;;;;;;4164622;28;20175;-89
2022/05/03 06:42:47;;;;;;;22.30;12.47;;;11.20;99.90;;;;;;4164629;28;20625;-89
2022/05/03 06:44:48;;;;;;;20.67;12.37;;;11.50;99.90;;;;;;4164598;28;20180;-92
2022/05/03 06:46:49;;;;;;;24.67;11.93;;;11.90;99.90;;;;;;4164611;28;20270;-90
2022/05/03 06:48:50;;;;;;;20.20;11.30;;;12.00;99.90;;;;;;4164401;28;20223;-90
2022/05/03 06:50:50;;;;;;;20.10;10.03;;;11.90;99.90;;;;;;4164548;28;20168;-89
2022/05/03 06:52:51;;;;;;;16.43;9.30;;;12.10;99.90;;;;;;4181138;28;20175;-90
2022/05/03 06:54:52;;;;;;;15.53;8.93;;;12.00;99.90;;;;;;4165480;28;20211;-89
2022/05/03 06:56:53;;;;;;;16.03;9.20;;;12.00;99.90;;;;;;4167914;28;20226;-89
2022/05/03 06:58:54;;;;;;;15.10;9.60;;;12.00;99.90;;;;;;4168023;28;20250;-89
2022/05/03 07:00:55;;;;;;;16.90;8.73;;;12.00;99.90;;;;;;4184150;28;20186;-89
2022/05/03 07:02:55;;;;;;;19.33;9.40;;;12.10;99.90;;;;;;4167636;28;20234;-90
2022/05/03 07:05:00;;;;;;;14.87;8.73;;;12.20;99.90;;;;;;4167832;28;20180;-89
2022/05/03 07:07:01;;;;;;;15.97;9.53;;;12.40;99.90;;;;;;4168193;28;20180;-89
2022/05/03 07:09:03;;;;;;;16.38;9.25;;;12.80;99.90;;;;;;4183866;28;20240;-90
2022/05/03 07:11:04;;;;;;;12.13;7.43;;;13.70;99.90;;;;;;4184277;28;20163;-89
2022/05/03 07:13:05;;;;;;;14.43;7.60;;;14.80;99.90;;;;;;4167500;28;20532;-90
2022/05/03 07:15:07;;;;;;;12.30;7.18;;;15.60;99.90;;;;;;4184148;28;20258;-90
2022/05/03 07:17:08;;;;;;;14.02;7.18;;;16.10;99.90;;;;;;4167296;28;20184;-89
2022/05/03 07:23:47;;;;;;;13.98;8.13;;;17.10;99.90;;;;;;4184467;28;20302;-95
2022/05/03 07:25:48;;;;;;;12.30;6.95;;;17.10;99.90;;;;;;4167865;28;20227;-90
2022/05/03 07:27:50;;;;;;;12.15;6.78;;;17.60;99.90;;;;;;4167667;28;20172;-90
2022/05/03 07:29:50;;;;;;;15.02;6.72;;;17.90;99.90;;;;;;4167687;28;20177;-90
2022/05/03 07:31:51;;;;;;;13.05;7.20;;;18.30;99.90;;;;;;4167412;28;20167;-93
2022/05/03 07:33:52;;;;;;;10.85;6.60;;;18.90;99.90;;;;;;4167761;28;20187;-90
2022/05/03 07:35:53;;;;;;;10.20;6.45;;;19.00;99.90;;;;;;4167872;28;20164;-89
2022/05/03 07:37:53;;;;;;;9.93;5.63;;;18.80;99.90;;;;;;4167407;28;20206;-88
2022/05/03 07:39:54;;;;;;;12.70;6.20;;;18.60;99.90;;;;;;4183852;28;20199;-89
2022/05/03 07:41:55;;;;;;;9.05;6.57;;;18.00;99.90;;;;;;4167305;28;20199;-89
2022/05/03 07:43:55;;;;;;;13.50;6.68;;;18.10;99.90;;;;;;4183716;28;20270;-89
2022/05/03 07:45:56;;;;;;;16.80;5.78;;;18.50;99.90;;;;;;4167183;28;20214;-89
2022/05/03 07:47:57;;;;;;;8.95;5.93;;;18.50;99.90;;;;;;4166763;28;20238;-89
2022/05/03 07:49:57;;;;;;;10.93;6.47;;;18.60;99.90;;;;;;4167003;28;20175;-89
2022/05/03 07:51:59;;;;;;;12.20;6.47;;;18.60;99.90;;;;;;4183336;28;20218;-89
2022/05/03 07:54:00;;;;;;;9.75;6.18;;;18.90;99.90;;;;;;4183688;28;20191;-90
2022/05/03 07:56:01;;;;;;;12.15;6.80;;;18.90;99.90;;;;;;4167378;28;20231;-89
2022/05/03 07:58:02;;;;;;;11.65;7.22;;;19.40;99.90;;;;;;4166816;28;20180;-89
2022/05/03 08:00:05;;;;;;;11.05;6.47;;;19.20;99.90;;;;;;4166939;28;20164;-92
2022/05/03 08:02:07;;;;;;;15.73;7.05;;;19.00;99.90;;;;;;4166824;28;20180;-90
2022/05/03 08:04:08;;;;;;;11.43;6.50;;;19.10;99.90;;;;;;4183433;28;20179;-89
2022/05/03 08:06:08;;;;;;;11.90;7.50;;;19.00;99.90;;;;;;4183164;28;20199;-92
2022/05/03 08:08:09;;;;;;;15.93;7.60;;;18.80;99.90;;;;;;4166975;28;20598;-89
2022/05/03 08:10:10;;;;;;;13.18;7.25;;;18.50;99.90;;;;;;4166890;28;20632;-89
2022/05/03 08:12:12;;;;;;;10.65;7.07;;;18.80;99.90;;;;;;4183458;28;20179;-90
2022/05/03 08:14:13;;;;;;;12.60;7.20;;;18.90;99.90;;;;;;4183627;28;20306;-94
2022/05/03 08:16:18;;;;;;;12.50;7.03;;;18.50;99.90;;;;;;4183136;28;20213;-90
2022/05/03 08:18:19;;;;;;;15.35;8.07;;;18.30;99.90;;;;;;4183320;28;20195;-94
2022/05/03 08:20:19;;;;;;;9.27;7.03;;;18.60;99.90;;;;;;4183859;28;20225;-90
2022/05/03 08:22:20;;;;;;;11.55;6.50;;;18.90;99.90;;;;;;4166799;28;20180;-90
2022/05/03 08:24:21;;;;;;;13.77;7.15;;;19.00;99.90;;;;;;4183577;28;20257;-90
2022/05/03 08:26:22;;;;;;;14.40;7.22;;;19.10;99.90;;;;;;4166438;28;20643;-94
2022/05/03 08:28:23;;;;;;;10.95;6.78;;;19.10;99.90;;;;;;4182883;28;20226;-93
2022/05/03 08:30:23;;;;;;;11.80;6.65;;;18.80;99.90;;;;;;4166456;28;20278;-89
2022/05/03 08:32:26;;;;;;;10.13;6.90;;;18.50;99.90;;;;;;4183363;28;20168;-88
2022/05/03 08:34:27;;;;;;;13.27;6.95;;;18.50;99.90;;;;;;4166715;28;20168;-90
2022/05/03 08:36:29;;;;;;;11.02;6.65;;;19.00;99.90;;;;;;4166351;28;20185;-88
2022/05/03 08:43:09;;;;;;;9.05;6.78;;;18.90;99.90;;;;;;4182855;28;20625;-93
2022/05/03 08:45:10;;;;;;;11.57;6.53;;;18.60;99.90;;;;;;4165973;28;20290;-90
2022/05/03 08:47:11;;;;;;;11.15;6.65;;;18.50;99.90;;;;;;4165979;28;20605;-91
2022/05/03 08:49:17;;;;;;;10.45;7.03;;;18.50;99.90;;;;;;4166820;28;20211;-88
2022/05/03 08:51:20;;;;;;;13.38;7.53;;;18.40;99.90;;;;;;4166265;28;20174;-88
2022/05/03 08:53:21;;;;;;;13.20;7.13;;;18.30;99.90;;;;;;4166416;28;20168;-90
2022/05/03 08:55:23;;;;;;;13.75;7.07;;;18.40;99.90;;;;;;4166348;28;20179;-89
2022/05/03 08:57:24;;;;;;;10.07;7.40;;;18.50;99.90;;;;;;4182534;28;20195;-90
2022/05/03 08:59:25;;;;;;;13.43;6.63;;;18.70;99.90;;;;;;4182293;28;20234;-90
2022/05/03 09:01:25;;;;;;;11.50;7.70;;;18.80;99.90;;;;;;4165661;28;20183;-91
2022/05/03 09:03:26;;;;;;;13.32;7.63;;;19.10;99.90;;;;;;4166124;28;20532;-91
2022/05/03 09:05:27;;;;;;;10.73;7.03;;;19.20;99.90;;;;;;4166107;28;20713;-94
2022/05/03 09:07:31;;;;;;;13.38;7.93;;;19.10;99.90;;;;;;4166814;28;20172;-92
2022/05/03 09:09:32;;;;;;;12.50;7.30;;;19.50;99.90;;;;;;4166115;28;20188;-92
2022/05/03 09:11:44;;;;;;;11.25;7.05;;;19.70;99.90;;;;;;4166116;28;20653;-92
2022/05/03 09:13:46;;;;;;;13.05;7.80;;;19.50;99.90;;;;;;4165983;28;20178;-93
2022/05/03 09:15:51;;;;;;;12.55;7.00;;;19.60;99.90;;;;;;4182631;28;20667;-92
2022/05/03 09:17:51;;;;;;;14.05;7.90;;;19.50;99.90;;;;;;4165680;28;20711;-92
2022/05/03 09:19:52;;;;;;;12.75;7.40;;;19.50;99.90;;;;;;4182639;28;20168;-91
2022/05/03 09:24:13;;;;;;;18.10;8.00;;;19.30;99.90;;;;;;4183358;28;20180;-91
2022/05/03 09:26:19;;;;;;;13.07;7.57;;;19.10;99.90;;;;;;4166586;28;20317;-90
2022/05/03 09:28:22;;;;;;;11.57;7.28;;;19.60;99.90;;;;;;4182420;28;20192;-90
2022/05/03 09:30:22;;;;;;;8.45;5.95;;;19.40;99.90;;;;;;4165617;28;20172;-90
2022/05/03 09:32:40;;;;;;;11.68;6.63;;;19.40;99.90;;;;;;4182441;28;20232;-90
2022/05/03 09:34:41;;;;;;;8.60;6.43;;;19.60;99.90;;;;;;4165510;28;20184;-91
2022/05/03 09:36:50;;;;;;;12.18;7.82;;;19.60;99.90;;;;;;4165638;28;20556;-89
2022/05/03 09:38:53;;;;;;;14.27;7.50;;;19.60;99.90;;;;;;4165554;28;20230;-91
2022/05/03 09:40:54;;;;;;;13.18;8.38;;;19.50;99.90;;;;;;4165423;28;20534;-95
2022/05/03 09:42:56;;;;;;;12.55;8.10;;;19.40;99.90;;;;;;4165448;28;20227;-90
2022/05/03 09:45:00;;;;;;;12.63;7.35;;;20.10;99.90;;;;;;4165343;28;20179;-91
2022/05/03 09:47:01;;;;;;;9.30;5.57;;;20.70;99.90;;;;;;4165168;28;20706;-91
2022/05/03 09:49:02;;;;;;;7.35;5.15;;;20.30;99.90;;;;;;4181872;28;20184;-92
2022/05/03 09:51:14;;;;;;;11.27;5.95;;;19.90;99.90;;;;;;4165574;28;20180;-91
2022/05/03 09:53:21;;;;;;;10.82;7.28;;;19.80;99.90;;;;;;4165390;28;20172;-93
2022/05/03 09:55:32;;;;;;;11.43;6.90;;;19.70;99.90;;;;;;4181621;28;20175;-90
2022/05/03 09:57:35;;;;;;;12.68;7.20;;;19.50;99.90;;;;;;4164748;28;20175;-92
2022/05/03 09:59:36;;;;;;;17.35;8.35;;;19.80;99.90;;;;;;4181755;28;20225;-91
2022/05/03 10:01:38;;;;;;;10.77;7.57;;;19.80;99.90;;;;;;4164922;28;20226;-90
2022/05/03 10:03:39;;;;;;;10.23;7.10;;;19.80;99.90;;;;;;4165153;28;20176;-92
2022/05/03 10:05:42;;;;;;;11.10;6.50;;;19.80;99.90;;;;;;4165056;28;20219;-90
2022/05/03 10:07:43;;;;;;;10.45;5.80;;;20.00;99.90;;;;;;4165171;28;20180;-90
2022/05/03 10:09:45;;;;;;;12.05;5.80;;;20.00;99.90;;;;;;4165146;28;20243;-90
2022/05/03 10:11:46;;;;;;;10.98;7.57;;;20.20;99.90;;;;;;4165305;28;20183;-90
2022/05/03 10:13:47;;;;;;;10.10;6.00;;;20.10;99.90;;;;;;4165229;28;20164;-91
2022/05/03 10:20:46;;;;;;;12.88;7.28;;;19.10;99.90;;;;;;4181469;28;20174;-90
2022/05/03 10:22:47;;;;;;;9.80;6.35;;;18.80;99.90;;;;;;4164650;28;20176;-91
2022/05/03 10:24:58;;;;;;;11.10;6.43;;;18.70;99.90;;;;;;4182059;28;20187;-91
2022/05/03 10:27:05;;;;;;;9.73;6.57;;;18.70;99.90;;;;;;4165940;28;20184;-91
2022/05/03 10:29:07;;;;;;;9.23;6.13;;;18.50;99.90;;;;;;4164272;28;20192;-91
2022/05/03 10:31:10;;;;;;;9.73;5.55;;;18.40;99.90;;;;;;4164874;28;20541;-90
2022/05/03 10:33:20;;;;;;;11.07;6.38;;;18.30;99.90;;;;;;4180868;28;20188;-90
2022/05/03 10:35:34;;;;;;;13.02;6.80;;;18.30;99.90;;;;;;4165090;28;20174;-91
2022/05/03 10:37:36;;;;;;;10.95;7.35;;;18.30;99.90;;;;;;4181250;28;20205;-91
2022/05/03 10:39:51;;;;;;;9.50;6.40;;;18.20;99.90;;;;;;4164905;28;20200;-91
2022/05/03 10:42:00;;;;;;;12.20;6.97;;;18.30;99.90;;;;;;4181325;28;20261;-92
2022/05/03 10:44:40;;;;;;;11.40;6.97;;;18.20;99.90;;;;;;4165292;28;20171;-91
2022/05/03 10:46:50;;;;;;;12.10;6.00;;;18.30;99.90;;;;;;4180844;28;20221;-90
2022/05/03 10:49:15;;;;;;;12.25;5.30;;;18.40;99.90;;;;;;4164738;28;20687;-91
2022/05/03 10:51:16;;;;;;;10.45;5.28;;;18.30;99.90;;;;;;4164706;28;20242;-91
2022/05/03 10:53:19;;;;;;;8.30;5.18;;;18.30;99.90;;;;;;4165145;28;20633;-90
2022/05/03 10:55:21;;;;;;;5.85;4.78;;;18.50;99.90;;;;;;4164710;28;20664;-90
2022/05/03 10:57:22;;;;;;;11.73;5.13;;;18.60;99.90;;;;;;4164908;28;20180;-91
2022/05/03 10:59:22;;;;;;;10.88;5.25;;;18.80;99.90;;;;;;4165653;28;20196;-90
2022/05/03 11:01:24;;;;;;;11.10;7.47;;;19.20;99.90;;;;;;4164876;28;20184;-91
2022/05/03 11:03:24;;;;;;;11.93;6.55;;;19.50;99.90;;;;;;4181314;28;20258;-90
2022/05/03 11:05:25;;;;;;;14.43;8.02;;;19.00;99.90;;;;;;4165320;28;20253;-89
2022/05/03 11:07:29;;;;;;;11.38;7.63;;;18.30;99.90;;;;;;4165661;28;20176;-90
2022/05/03 11:09:31;;;;;;;9.68;6.55;;;18.10;99.90;;;;;;4164550;28;20188;-90
2022/05/03 11:11:38;;;;;;;10.35;6.85;;;18.30;99.90;;;;;;4182360;28;20621;-91